Date,TemperatureHighF,TemperatureAvgF,TemperatureLowF,DewpointHighF,DewpointAvgF,DewpointLowF,HumidityHigh,HumidityAvg,HumidityLow,PressureMaxIn,PressureMinIn,WindSpeedMaxMPH,WindSpeedAvgMPH,GustSpeedMaxMPH,PrecipitationSumIn
2013-1-1,56.4,43.9,30.1,42.2,26.9,14.8,97,60,21,30.33,30.17,3,0,5,0.01
2013-1-2,63.8,52.1,35.9,26.7,20.3,15.0,69,31,17,30.22,30.09,2,1,7,0.00
2013-1-3,65.1,47.6,30.4,26.3,19.9,10.7,81,40,13,30.26,30.13,4,1,6,0.00
2013-1-4,63.2,41.4,25.0,29.8,22.7,12.9,83,54,14,30.35,30.23,1,0,2,0.00
2013-1-5,62.8,42.1,25.1,36.6,28.9,21.7,91,65,21,30.37,30.25,1,0,2,0.00
2013-1-6,52.9,44.0,35.9,45.0,39.7,34.1,100,85,64,30.27,30.09,2,0,4,0.01
2013-1-7,62.9,49.1,35.3,40.5,33.7,25.3,95,59,31,30.19,30.07,2,0,5,0.00
2013-1-8,75.8,55.1,39.9,39.4,34.4,26.1,82,50,20,30.17,30.08,3,0,5,0.00
2013-1-9,68.9,51.5,35.3,48.5,39.3,32.9,94,69,31,30.18,30.06,1,0,2,0.00
2013-1-10,53.3,46.2,37.5,45.0,36.2,25.9,94,71,36,30.16,29.97,3,0,7,0.00
2013-1-11,50.8,38.7,25.3,29.7,23.8,19.0,89,58,30,30.26,30.12,2,0,4,0.00
2013-1-12,52.8,36.8,24.8,26.8,22.5,16.9,85,61,26,30.24,30.14,3,0,7,0.00
2013-1-13,52.1,34.7,21.6,26.6,22.7,19.0,93,66,29,30.26,30.13,2,0,4,0.00
2013-1-14,48.5,40.0,31.0,19.4,6.2,0.4,61,25,15,30.43,30.23,4,1,7,0.00
2013-1-15,59.5,42.9,27.5,23.0,17.5,8.2,63,39,22,30.52,30.40,4,1,7,0.00
2013-1-16,70.4,49.1,30.8,30.0,23.8,18.9,78,44,15,30.44,30.21,4,1,6,0.00
2013-1-17,73.9,54.8,36.5,25.4,18.9,8.1,57,30,8,30.25,30.12,3,1,6,0.00
2013-1-18,73.1,47.0,29.5,28.8,21.9,14.9,75,45,11,30.24,30.13,3,0,5,0.00
2013-1-19,74.0,46.7,28.8,27.3,21.0,14.9,76,44,11,30.28,30.15,2,0,4,0.00
2013-1-20,75.1,47.7,27.5,30.0,18.5,6.1,76,41,7,30.23,30.09,3,0,4,0.00
2013-1-21,77.1,48.6,29.7,28.7,17.1,4.3,69,38,6,30.18,30.08,3,0,4,0.00
2013-1-22,76.0,48.4,27.3,27.6,20.6,7.3,72,41,7,30.18,30.08,2,0,5,0.00
2013-1-23,74.5,55.4,41.6,48.7,33.8,25.9,92,48,20,30.17,30.07,2,0,5,0.11
2013-1-24,59.6,54.3,50.9,55.1,52.2,48.1,96,93,82,30.23,30.13,3,0,7,0.92
2013-1-25,57.5,54.9,52.9,56.7,54.0,51.8,98,97,96,30.19,30.02,0,0,1,0.47
2013-1-26,68.3,58.6,49.3,57.6,53.2,47.4,98,83,60,30.03,29.92,1,0,4,0.04
2013-1-27,57.7,50.3,35.2,51.8,45.3,32.6,96,84,54,30.09,29.98,3,0,3,0.00
2013-1-28,54.8,40.7,31.0,36.9,32.2,27.9,96,75,38,30.27,30.09,2,0,4,0.01
2013-1-29,58.4,42.3,29.4,40.4,33.8,27.9,96,76,37,30.29,30.20,2,0,4,0.00
2013-1-30,68.0,46.9,31.8,43.9,36.8,30.3,97,73,34,30.40,30.28,2,0,4,0.00
2013-1-31,75.0,50.4,32.0,47.5,37.4,30.2,96,68,24,30.33,30.16,1,0,3,0.00
2013-2-1,73.1,50.9,34.1,48.4,40.3,32.0,96,71,27,30.24,30.17,2,0,4,0.00
2013-2-2,73.5,57.2,43.1,51.4,44.2,39.8,91,67,31,30.26,30.17,1,0,3,0.00
2013-2-3,73.1,55.1,40.7,49.4,43.8,38.5,95,70,31,30.20,30.05,2,0,3,0.00
2013-2-4,74.6,50.4,34.5,53.1,41.7,32.8,96,77,31,30.14,30.02,3,0,4,0.00
2013-2-5,56.4,48.3,36.8,50.6,45.6,35.0,96,91,80,30.14,30.05,2,0,3,0.00
2013-2-6,64.9,51.1,37.6,50.0,45.1,35.5,96,82,43,30.17,30.05,2,0,5,0.00
2013-2-7,58.7,44.9,32.1,49.0,40.4,30.6,97,85,69,30.20,30.03,2,0,4,0.00
2013-2-8,50.6,44.2,35.0,42.6,38.1,33.0,94,79,61,30.03,29.92,3,1,7,0.02
2013-2-9,55.0,39.7,27.4,40.7,33.3,25.8,96,80,52,30.17,30.00,2,0,4,0.01
2013-2-10,52.6,39.4,27.7,42.9,35.0,25.9,96,85,66,30.18,30.08,1,0,3,0.00
2013-2-11,60.1,41.9,27.0,39.0,26.4,17.3,96,64,20,30.31,30.14,6,1,8,0.00
2013-2-12,62.6,43.1,25.1,31.0,25.3,19.3,92,57,19,30.41,30.30,3,0,5,0.00
2013-2-13,70.1,45.5,28.4,41.0,31.4,25.6,92,64,21,30.33,30.19,2,0,5,0.00
2013-2-14,75.7,56.1,31.1,40.7,32.4,25.5,92,49,16,30.26,30.12,3,1,6,0.00
2013-2-15,77.6,55.7,35.4,34.9,27.5,21.1,82,44,13,30.26,30.18,4,1,6,0.00
2013-2-16,77.8,51.7,32.0,34.0,24.4,13.7,81,44,9,30.24,30.04,2,0,4,0.00
2013-2-17,70.6,48.3,29.1,48.6,34.3,23.8,92,64,20,30.08,29.95,2,0,5,0.00
2013-2-18,61.5,51.2,39.9,47.9,44.5,37.8,93,79,55,30.10,29.98,4,0,6,0.00
2013-2-19,54.0,47.4,41.8,45.2,41.3,36.1,93,80,58,30.03,29.76,2,0,7,0.15
2013-2-20,57.9,44.5,31.8,38.5,32.5,27.8,87,65,40,30.06,29.76,3,1,8,0.00
2013-2-21,57.9,41.3,27.3,43.7,33.7,25.1,95,76,41,30.18,30.04,2,0,4,0.00
2013-2-22,63.4,48.3,27.8,37.7,32.8,26.0,95,59,31,30.26,30.18,2,0,5,0.00
2013-2-23,64.9,47.3,29.0,47.8,35.6,25.4,90,67,34,30.24,29.96,3,1,7,0.00
2013-2-24,63.7,54.2,36.8,30.5,14.5,4.8,55,24,11,30.26,30.08,6,2,11,0.00
2013-2-25,66.9,45.6,27.0,28.9,23.0,16.6,73,47,15,30.28,30.12,3,0,5,0.00
2013-2-26,71.4,50.8,27.1,34.3,24.0,15.2,89,44,12,30.19,30.05,4,1,6,0.00
2013-2-27,71.5,56.5,35.6,26.1,18.8,10.8,60,27,10,30.34,30.19,4,1,6,0.00
2013-2-28,78.0,62.5,44.9,32.3,17.4,9.5,41,19,8,30.37,30.27,3,1,5,0.00
2013-3-1,82.2,65.5,35.9,35.9,25.8,19.8,70,27,11,30.35,30.21,2,0,4,0.00
2013-3-2,82.3,57.9,35.1,37.8,29.8,23.7,78,42,12,30.28,30.13,2,0,3,0.00
2013-3-3,72.7,58.2,44.2,47.0,39.8,31.2,88,53,26,30.16,29.99,3,0,5,0.00
2013-3-4,68.1,53.6,41.3,51.5,45.5,38.6,94,76,48,30.15,30.05,2,0,4,0.00
2013-3-5,63.4,50.1,38.8,51.3,45.4,36.8,95,85,63,30.17,30.08,3,0,7,0.00
2013-3-6,56.4,51.9,43.7,49.5,46.0,41.5,92,81,61,30.19,30.05,3,0,5,0.00
2013-3-7,57.9,51.3,47.1,49.2,44.6,38.3,96,79,52,30.05,29.86,2,0,6,0.02
2013-3-8,56.2,48.5,40.8,46.3,42.7,39.4,97,82,60,30.06,29.83,3,0,6,0.20
2013-3-9,63.0,53.1,38.6,44.9,40.9,35.3,92,66,44,30.28,30.15,3,0,6,0.00
2013-3-10,73.9,52.6,32.9,40.0,29.7,14.7,94,54,11,30.34,30.22,4,1,11,0.00
2013-3-11,77.3,53.2,31.5,39.9,33.8,22.5,92,56,13,30.24,30.10,2,0,4,0.00
2013-3-12,83.9,56.4,34.5,47.2,37.3,28.2,92,57,14,30.15,30.05,3,0,5,0.00
2013-3-13,89.3,60.9,38.0,48.6,37.6,27.9,92,51,11,30.16,30.07,5,0,5,0.00
2013-3-14,90.4,65.2,40.2,51.6,41.8,36.0,87,48,16,30.14,30.05,4,1,7,0.00
2013-3-15,85.4,61.0,43.7,54.9,45.6,33.9,85,62,17,30.07,29.95,5,0,6,0.00
2013-3-16,70.5,50.9,41.3,53.8,45.3,39.2,94,82,55,30.00,29.96,2,0,3,0.00
2013-3-17,75.8,61.6,39.0,51.2,46.5,37.4,96,62,33,30.04,29.94,3,1,8,0.00
2013-3-18,65.3,53.8,41.3,52.6,47.6,38.9,94,81,62,30.12,30.02,3,0,5,0.00
2013-3-19,73.2,55.6,40.7,53.7,47.1,39.1,96,76,38,30.17,30.07,4,0,6,0.00
2013-3-20,72.6,58.8,47.0,53.7,47.7,43.8,94,70,38,30.14,29.99,4,1,6,0.00
2013-3-21,75.7,59.9,43.1,51.9,46.7,40.6,93,66,36,30.00,29.83,3,0,5,0.00
2013-3-22,76.8,55.9,35.3,41.8,34.7,27.8,86,52,17,29.96,29.84,4,1,5,0.00
2013-3-23,76.3,53.5,32.3,48.7,33.7,24.6,75,51,21,30.06,29.95,3,1,5,0.00
2013-3-24,79.6,56.4,36.2,49.1,38.8,31.0,91,58,18,30.07,29.93,3,0,5,0.00
2013-3-25,78.0,56.6,37.7,54.4,42.4,34.2,90,64,23,30.01,29.93,4,1,6,0.00
2013-3-26,73.2,55.1,38.7,54.0,44.9,36.3,93,71,38,30.00,29.93,4,0,7,0.00
2013-3-27,51.5,44.1,41.6,48.7,41.5,39.2,94,90,84,30.04,29.98,0,0,2,0.00
2013-3-28,75.1,62.0,47.0,55.4,51.5,45.4,95,71,47,30.13,30.05,3,1,4,0.00
2013-3-29,79.2,59.3,41.8,55.4,48.3,39.8,96,71,30,30.15,30.06,3,1,7,0.00
2013-3-30,75.8,60.3,49.3,53.3,48.3,38.7,95,68,30,30.16,30.07,3,0,5,0.00
2013-3-31,63.4,56.3,48.3,56.2,49.9,44.8,91,79,71,30.16,30.09,3,0,4,0.00
2013-4-1,64.4,55.2,46.8,51.7,48.7,44.6,94,80,58,30.21,30.12,3,1,6,0.00
2013-4-2,73.8,58.0,45.3,52.2,47.4,43.3,97,72,37,30.15,30.03,2,0,7,0.00
2013-4-3,78.8,59.5,41.6,56.8,48.6,39.3,94,71,34,30.12,30.02,3,1,5,0.00
2013-4-4,74.9,58.2,45.9,54.7,50.3,43.2,94,77,47,30.16,30.04,3,1,7,0.00
2013-4-5,72.9,62.8,49.8,56.2,52.9,46.6,90,71,49,30.11,30.01,3,1,4,0.00
2013-4-6,76.3,59.1,42.9,55.6,48.7,41.0,96,72,35,30.12,29.98,3,0,5,0.00
2013-4-8,67.7,59.3,46.0,40.9,36.1,28.6,66,43,24,29.89,29.70,4,2,8,0.00
2013-4-9,73.2,55.6,37.2,37.0,31.7,21.1,80,47,15,30.07,29.89,3,1,7,0.00
2013-4-10,82.2,65.5,40.2,33.5,26.7,12.6,71,29,8,30.16,30.02,3,1,8,0.00
2013-4-11,76.9,58.7,40.9,49.9,41.6,32.8,79,56,28,30.03,29.80,3,0,7,0.00
2013-4-12,76.2,58.5,45.0,54.9,49.0,41.8,91,73,46,29.92,29.82,3,0,5,0.00
2013-4-13,68.1,57.0,49.1,55.3,51.9,45.1,93,84,63,29.95,29.87,2,0,5,0.00
2013-4-14,61.6,56.3,52.5,52.0,50.6,49.2,94,82,69,29.92,29.85,2,0,4,0.00
2013-4-15,65.9,56.6,48.1,51.2,48.5,42.5,86,75,53,29.93,29.86,3,0,5,0.00
2013-4-16,65.6,51.9,36.9,43.4,37.2,31.3,94,62,33,30.07,29.90,3,0,6,0.00
2013-4-17,70.7,54.3,36.5,35.8,27.5,12.3,72,41,12,30.20,30.07,3,1,6,0.00
2013-4-18,77.6,60.5,38.7,28.5,19.8,12.4,61,25,9,30.27,30.17,3,1,9,0.00
2013-4-19,83.6,59.7,36.8,31.2,25.2,14.5,65,34,9,30.22,30.02,2,0,4,0.00
2013-4-20,90.7,65.3,40.8,44.9,34.2,23.6,70,38,9,30.04,29.92,3,1,7,0.00
2013-4-21,88.6,67.9,45.8,51.5,43.0,34.0,78,45,16,30.03,29.94,3,0,4,0.00
2013-4-22,78.3,60.2,46.6,56.5,49.9,41.6,92,71,39,30.03,29.90,3,0,6,0.00
2013-4-23,79.5,61.5,50.6,55.0,50.8,46.0,88,70,40,30.00,29.89,2,0,4,0.00
2013-4-24,60.4,56.6,50.2,54.5,51.0,45.9,88,82,71,30.04,29.94,1,0,3,0.00
2013-4-25,70.3,59.1,47.1,49.6,47.1,42.8,89,66,43,30.17,30.00,2,0,5,0.00
2013-4-26,79.8,59.7,40.5,52.4,46.7,37.6,92,66,37,30.20,30.13,2,0,5,0.00
2013-4-27,84.0,63.7,44.3,54.5,48.3,41.5,93,63,27,30.19,30.02,3,1,6,0.00
2013-4-28,85.1,66.8,45.3,58.2,52.8,42.8,93,64,37,30.04,29.87,2,0,6,0.00
2013-4-29,80.5,63.6,49.2,59.3,53.8,45.6,94,73,44,29.93,29.80,2,0,5,0.00
2013-4-30,70.7,60.6,51.9,55.2,52.7,48.3,91,76,57,29.93,29.84,4,0,7,0.00
2013-5-1,80.2,65.3,54.2,56.8,53.3,48.6,87,67,44,30.13,29.93,2,0,7,0.00
2013-5-2,91.3,70.6,44.1,48.8,17.3,-10.2,92,30,2,30.19,30.05,3,1,7,0.00
2013-5-3,92.7,67.6,41.0,32.5,18.9,0.2,50,22,3,30.08,29.82,2,0,4,0.00
2013-5-4,78.3,60.8,44.2,52.8,42.2,28.3,80,53,24,29.87,29.75,3,1,6,0.00
2013-5-5,60.5,56.9,54.5,53.3,50.7,48.7,93,80,67,29.97,29.85,3,1,7,0.30
2013-5-6,67.6,58.3,53.0,56.8,51.9,45.4,96,81,47,30.06,29.92,2,0,8,0.61
2013-5-7,67.2,58.9,51.8,53.2,51.1,46.9,94,77,57,30.11,30.03,2,0,5,0.01
2013-5-8,70.4,57.9,46.6,52.5,47.4,43.5,94,71,45,30.14,30.10,3,0,6,0.00
2013-5-9,75.2,60.0,43.8,56.6,49.8,41.6,94,71,46,30.15,30.05,2,0,4,0.00
2013-5-10,85.0,66.3,48.3,58.1,53.0,46.4,94,67,31,30.13,30.03,2,0,6,0.00
2013-5-11,93.9,71.1,51.5,62.2,55.0,49.3,94,62,27,30.10,30.01,3,0,7,0.00
2013-5-12,100.6,77.5,53.7,60.5,51.3,45.0,89,48,16,30.08,29.94,2,0,4,0.00
2013-5-13,100.0,78.4,54.7,55.4,45.1,27.0,77,39,11,29.99,29.91,3,1,5,0.00
2013-5-14,83.3,65.2,48.2,54.6,46.3,35.8,82,53,30,30.02,29.91,3,1,7,0.00
2013-5-15,77.3,63.4,46.6,57.9,51.9,43.5,91,68,49,30.06,29.97,2,0,4,0.00
2013-5-16,75.0,59.9,48.2,57.5,52.0,44.9,92,76,53,30.02,29.92,2,0,4,0.00
2013-5-17,73.3,62.9,52.6,57.2,52.3,46.0,89,70,50,30.03,29.95,2,0,5,0.00
2013-5-18,78.7,62.3,46.0,57.3,50.0,43.2,92,67,40,30.08,30.00,2,0,5,0.00
2013-5-19,84.7,66.0,44.2,56.0,47.6,41.1,91,57,25,30.03,29.89,2,0,4,0.00
2013-5-20,89.8,68.8,47.7,56.4,48.0,39.2,91,53,28,29.98,29.90,2,0,4,0.00
2013-5-21,85.2,66.3,51.0,61.9,53.7,39.9,91,66,44,29.97,29.85,2,0,5,0.00
2013-5-22,76.3,64.5,51.4,57.8,53.1,44.8,90,68,44,29.88,29.79,2,0,6,0.00
2013-5-23,73.0,59.5,47.3,54.1,48.3,42.8,87,68,46,29.98,29.86,2,0,5,0.00
2013-5-24,73.9,58.3,41.6,56.6,47.8,38.3,92,70,42,30.03,29.95,2,0,4,0.00
2013-5-25,75.0,58.5,42.4,56.5,48.5,39.5,92,71,49,30.06,30.01,2,0,4,0.00
2013-5-26,76.1,60.0,43.4,56.6,49.3,40.4,92,70,45,30.08,30.02,2,0,5,0.00
2013-5-27,81.9,63.9,45.1,56.9,50.1,42.1,91,64,33,30.05,29.87,2,0,6,0.00
2013-5-28,82.7,67.3,50.1,55.9,52.2,46.8,90,62,38,29.92,29.76,2,0,6,0.00
2013-5-29,87.8,69.2,49.7,55.3,50.2,44.8,85,56,26,29.83,29.72,3,0,6,0.00
2013-5-30,85.6,67.9,48.8,60.9,53.3,44.9,90,63,38,29.90,29.80,2,0,6,0.00
2013-5-31,84.5,69.1,53.3,60.2,56.2,48.5,88,66,42,29.93,29.83,2,0,5,0.00
2013-6-1,95.6,72.3,52.7,63.0,56.7,49.3,90,63,31,29.89,29.75,2,0,4,0.00
2013-6-2,82.6,68.1,61.3,63.0,59.5,57.3,90,76,50,29.85,29.78,2,0,5,0.00
2013-6-3,80.4,65.6,58.6,59.5,56.2,52.2,87,73,39,29.93,29.82,2,0,4,0.00
2013-6-4,78.9,65.1,52.9,59.1,55.9,49.1,88,74,49,30.01,29.92,2,0,4,0.00
2013-6-5,76.9,63.0,48.2,58.8,54.1,45.3,94,75,51,30.05,29.95,2,0,5,0.00
2013-6-6,79.5,62.7,47.8,60.3,54.1,45.3,95,76,50,29.99,29.90,2,0,4,0.00
2013-6-7,83.2,65.1,50.6,61.3,56.0,47.5,93,75,46,29.95,29.80,2,0,5,0.00
2013-6-8,83.6,66.6,56.2,62.2,57.6,52.7,95,76,48,29.88,29.82,2,1,4,0.00
2013-6-9,83.8,68.5,58.0,61.4,57.5,53.1,89,70,40,29.96,29.90,2,1,6,0.00
2013-6-10,79.0,65.4,56.6,57.4,54.2,51.8,87,69,46,30.00,29.93,2,0,5,0.00
2013-6-11,86.2,68.2,51.4,59.6,55.0,48.9,92,66,35,29.98,29.91,2,0,4,0.00
2013-6-12,81.6,66.0,53.9,61.8,56.7,48.5,93,74,49,30.05,29.97,2,1,5,0.00
2013-6-13,80.6,65.6,53.5,61.1,56.3,50.6,92,74,49,30.06,29.94,2,0,5,0.00
2013-6-14,81.3,64.8,48.8,61.2,55.0,45.9,95,73,49,29.96,29.87,2,0,5,0.00
2013-6-15,78.8,65.7,55.5,59.0,55.9,51.4,90,73,47,30.01,29.93,2,0,4,0.00
2013-6-16,82.5,67.1,51.2,59.1,55.1,48.4,93,68,41,30.08,29.98,3,0,5,0.00
2013-6-17,88.5,68.3,48.3,60.1,54.1,45.5,92,64,31,30.01,29.90,3,0,4,0.00
2013-6-18,84.7,66.6,49.6,59.4,53.3,46.2,92,65,36,29.95,29.85,3,1,6,0.00
2013-6-19,86.4,71.8,50.0,53.8,46.7,36.5,90,46,18,29.91,29.81,2,0,5,0.00
2013-6-20,86.8,67.8,45.8,56.2,46.6,37.6,77,50,22,29.89,29.82,2,0,5,0.00
2013-6-21,85.5,68.5,47.7,56.7,49.8,42.2,82,55,31,29.92,29.86,2,0,5,0.00
2013-6-22,83.8,67.2,49.3,61.0,52.4,42.8,81,61,41,29.93,29.84,2,0,6,0.00
2013-6-23,75.8,62.9,51.3,59.9,54.4,46.9,89,75,56,29.92,29.83,2,0,5,0.00
2013-6-24,70.2,63.4,53.2,59.6,56.1,49.3,88,78,67,29.99,29.86,1,0,5,0.00
2013-6-25,81.3,69.0,58.0,63.0,58.5,54.2,93,71,50,30.02,29.93,2,0,5,0.00
2013-6-26,93.6,74.6,56.8,64.6,59.0,51.9,87,61,37,30.00,29.94,3,0,5,0.00
2013-6-27,98.7,78.5,59.9,65.4,60.1,55.0,85,57,27,30.04,29.98,3,0,5,0.00
2013-6-28,98.6,79.6,59.6,65.1,59.9,53.3,81,55,31,30.01,29.89,2,0,9,0.00
2013-6-29,102.0,81.2,62.3,64.1,59.5,56.0,81,53,26,29.90,29.77,2,0,6,0.00
2013-6-30,106.0,82.3,62.3,65.0,58.9,53.4,74,50,21,29.83,29.74,2,0,4,0.00
2013-7-1,96.4,78.8,63.4,64.5,59.6,54.5,83,56,25,29.90,29.81,2,0,5,0.00
2013-7-2,86.5,67.7,61.2,62.0,57.2,54.0,80,70,39,29.96,29.89,0,0,1,0.00
2013-7-8,96.1,83.7,63.8,60.6,54.0,41.0,68,40,17,29.96,29.89,3,1,9,0.00
2013-7-9,100.3,77.5,55.8,62.3,53.8,45.2,70,48,18,29.99,29.94,3,0,10,0.00
2013-7-10,87.9,75.3,62.9,62.7,58.1,51.7,72,57,32,29.99,29.92,2,0,6,0.00
2013-7-11,78.4,72.7,65.4,64.6,61.9,58.4,83,69,60,29.99,29.91,2,0,7,0.00
2013-7-12,89.2,72.0,57.6,65.3,60.2,54.7,92,69,39,29.96,29.88,2,0,10,0.00
2013-7-13,89.8,72.2,54.4,62.4,56.4,50.4,88,61,29,29.98,29.88,3,0,9,0.00
2013-7-14,93.7,76.3,56.5,62.1,55.4,46.3,86,54,21,29.96,29.83,2,0,10,0.00
2013-7-15,90.4,73.0,57.3,59.8,53.3,46.8,78,53,25,29.90,29.82,3,0,9,0.00
2013-7-16,92.6,69.3,46.8,56.1,48.6,41.3,83,53,18,30.01,29.89,2,0,9,0.00
2013-7-17,92.5,70.5,48.6,53.0,45.9,33.8,79,47,16,30.06,29.98,2,0,9,0.00
2013-7-18,88.4,70.2,49.2,59.8,51.1,41.7,77,54,28,30.01,29.89,3,0,10,0.00
2013-7-19,87.5,71.1,53.8,60.3,54.5,48.1,83,59,34,29.93,29.84,2,0,9,0.00
2013-7-20,90.0,69.5,55.4,64.4,58.2,51.0,89,69,42,29.91,29.80,2,0,10,0.00
2013-7-21,82.7,72.4,65.5,63.9,60.8,57.1,82,68,42,29.96,29.83,2,0,7,0.00
2013-7-22,89.9,73.5,63.4,65.9,61.5,57.1,94,69,38,30.01,29.93,2,0,9,0.07
2013-7-23,86.6,71.2,58.5,63.8,59.1,55.0,89,68,45,30.05,29.96,2,0,14,0.00
2013-7-24,86.5,72.6,57.7,63.1,58.1,53.8,87,63,37,30.01,29.92,2,0,7,0.00
2013-7-25,87.6,70.9,56.9,63.2,57.9,52.4,86,66,44,30.04,29.96,2,0,7,0.00
2013-7-26,87.3,71.2,62.5,64.7,59.9,55.2,81,69,46,30.12,30.02,2,0,8,0.00
2013-7-27,88.0,71.7,58.6,62.7,58.4,54.0,86,65,41,30.05,29.90,3,1,9,0.00
2013-7-28,82.8,66.2,53.5,62.8,57.0,50.0,92,74,48,29.97,29.89,2,0,12,0.00
2013-7-29,84.3,67.8,56.0,59.8,56.1,50.3,91,69,33,30.07,29.96,2,0,8,0.00
2013-7-30,80.1,65.3,51.1,60.6,54.8,47.8,92,71,49,30.15,30.07,2,0,7,0.00
2013-7-31,77.8,63.0,51.0,59.2,54.5,47.6,94,76,51,30.15,30.03,2,0,8,0.00
2013-8-1,82.5,64.7,50.7,60.3,54.8,47.8,95,73,46,30.08,29.94,2,0,10,0.00
2013-8-2,82.4,65.3,48.9,62.2,55.1,45.9,93,72,49,30.01,29.94,2,0,7,0.00
2013-8-3,83.0,70.2,55.2,62.2,57.5,49.8,93,66,46,30.04,29.96,2,1,12,0.00
2013-8-4,82.9,65.2,46.8,61.2,53.6,44.0,94,69,41,30.06,29.97,2,0,9,0.00
2013-8-5,86.5,66.0,45.6,57.5,51.3,42.3,90,64,33,30.05,29.95,3,0,8,0.00
2013-8-6,82.7,64.1,47.2,59.7,53.3,43.5,93,70,44,30.07,30.01,2,0,8,0.00
2013-8-7,85.0,64.7,46.8,60.1,52.4,43.8,96,68,34,30.11,30.01,2,0,7,0.00
2013-8-8,83.8,64.7,48.2,59.7,52.3,45.1,93,67,39,30.04,29.94,2,0,12,0.00
2013-8-9,83.1,64.9,47.2,60.4,53.1,43.8,94,68,39,30.01,29.95,2,0,11,0.00
2013-8-10,81.7,63.6,47.3,60.3,53.3,43.8,92,72,44,30.07,29.99,2,0,9,0.00
2013-8-11,84.2,66.5,50.0,60.6,54.6,47.2,92,69,41,30.03,29.93,2,0,10,0.00
2013-8-12,84.3,67.2,50.7,61.8,55.7,47.9,93,69,45,30.01,29.93,3,0,8,0.00
2013-8-13,87.9,68.7,50.9,62.9,56.2,48.0,94,67,40,30.01,29.91,2,0,8,0.00
2013-8-14,95.8,76.1,58.0,62.0,57.6,51.3,92,57,25,29.96,29.85,2,0,8,0.00
2013-8-15,92.9,73.8,54.5,64.9,59.3,51.3,92,64,38,29.97,29.90,2,0,7,0.00
2013-8-16,93.5,75.3,57.4,62.8,56.1,51.3,82,55,27,29.98,29.92,3,0,8,0.00
2013-8-17,91.9,73.4,56.7,60.9,54.1,48.8,78,54,28,29.98,29.84,3,0,9,0.00
2013-8-18,92.1,71.1,53.6,61.7,55.3,48.2,87,61,29,29.94,29.83,2,0,7,0.00
2013-8-19,87.9,71.0,56.9,64.5,58.8,51.5,83,67,46,29.95,29.88,2,0,7,0.00
2013-8-20,90.6,69.4,52.3,62.3,57.0,49.5,93,68,37,29.97,29.88,2,0,8,0.00
2013-8-21,89.2,70.7,52.0,61.1,54.6,46.8,83,60,36,29.96,29.88,2,0,10,0.00
2013-8-22,94.3,73.3,53.2,56.4,51.2,45.3,80,50,22,29.96,29.85,3,0,9,0.00
2013-8-23,91.4,70.7,50.2,59.0,50.1,41.9,75,51,24,29.91,29.77,3,0,11,0.00
2013-8-24,91.0,69.3,48.3,57.7,48.7,39.5,82,52,19,29.91,29.78,2,0,11,0.00
2013-8-25,93.8,70.0,47.4,56.0,45.9,32.9,78,47,12,29.96,29.87,2,0,9,0.00
2013-8-26,92.5,72.7,49.6,63.6,49.0,36.3,64,45,31,29.98,29.85,2,0,11,0.00
2013-8-27,94.0,77.1,64.6,62.4,51.2,40.1,53,41,30,29.89,29.79,2,0,10,0.00
2013-8-28,96.0,76.7,59.9,62.4,50.9,42.1,65,43,22,29.93,29.81,2,0,8,0.00
2013-8-29,100.2,80.0,59.4,56.7,48.2,40.9,60,35,19,29.97,29.89,3,0,14,0.00
2013-8-30,94.8,81.1,66.4,68.9,60.1,46.4,68,49,38,29.99,29.92,3,1,9,0.00
2013-8-31,92.1,80.6,71.2,70.5,67.3,63.7,80,65,46,29.98,29.89,2,0,9,0.00
2013-9-1,90.9,78.7,68.4,70.7,67.3,63.0,85,70,50,29.95,29.86,2,0,9,0.00
2013-9-2,91.5,76.4,62.9,68.4,64.6,59.8,92,69,44,29.94,29.84,3,0,9,0.00
2013-9-3,97.2,79.2,63.6,64.7,60.8,57.3,84,58,27,29.92,29.84,2,0,8,0.00
2013-9-4,98.1,78.5,61.1,62.7,57.2,53.2,77,52,29,29.94,29.85,2,0,10,0.00
2013-9-5,99.8,79.5,60.4,60.4,53.8,47.0,72,45,23,29.91,29.83,2,0,9,0.00
2013-9-6,100.8,79.6,60.2,55.6,50.0,44.5,63,39,21,29.90,29.80,2,0,9,0.00
2013-9-7,99.8,77.7,59.6,56.1,44.9,33.8,58,34,14,29.89,29.81,3,0,9,0.00
2013-9-8,92.8,74.6,59.9,59.7,48.7,37.8,60,42,23,29.87,29.76,3,0,10,0.00
2013-9-9,87.4,70.1,59.0,60.5,53.7,47.4,76,58,35,29.83,29.75,3,0,8,0.00
2013-9-10,83.5,65.5,52.3,60.0,55.0,48.5,92,72,32,29.97,29.83,2,0,8,0.00
2013-9-11,81.4,65.3,51.9,61.8,56.4,49.0,95,75,50,30.03,29.95,2,0,9,0.00
2013-9-12,87.9,71.8,52.1,60.0,54.3,47.5,95,58,32,29.98,29.86,2,0,9,0.00
2013-9-13,90.5,70.7,51.6,60.7,51.9,44.4,77,54,32,29.88,29.69,3,0,10,0.00
2013-9-14,93.3,73.5,55.3,59.6,53.0,48.2,78,52,27,29.75,29.66,3,0,10,0.00
2013-9-15,94.3,73.3,56.1,63.1,55.0,48.6,80,56,28,29.80,29.71,2,0,10,0.00
2013-9-16,94.0,71.5,52.5,56.6,50.5,45.2,78,53,19,29.86,29.76,2,0,8,0.00
2013-9-17,84.1,65.2,48.0,59.0,51.3,43.2,87,63,38,29.85,29.75,2,0,10,0.00
2013-9-18,78.5,63.8,50.2,60.4,54.2,46.6,91,73,49,29.84,29.77,2,0,8,0.00
2013-9-19,82.8,64.8,48.8,62.0,54.9,46.5,95,73,48,29.87,29.78,2,0,8,0.00
2013-9-20,75.3,64.6,56.0,62.3,59.0,52.3,92,83,63,29.93,29.85,1,0,7,0.00
2013-9-21,76.2,66.0,60.4,59.3,57.0,52.4,87,74,50,29.95,29.83,2,0,9,0.00
2013-9-22,77.6,63.2,47.7,54.8,47.3,40.1,95,61,31,29.90,29.81,2,0,7,0.00
2013-9-23,91.6,68.4,46.2,46.0,39.4,34.6,75,41,14,29.93,29.86,2,0,8,0.00
2013-9-24,89.4,67.3,47.9,49.1,39.7,33.5,68,41,15,29.97,29.86,2,0,7,0.00
2013-9-25,75.8,61.4,46.9,59.9,49.3,40.0,87,65,49,29.88,29.72,2,0,7,0.00
2013-9-26,72.7,60.2,49.1,52.1,45.3,39.2,86,61,30,29.94,29.76,2,0,9,0.00
2013-9-27,81.9,61.1,41.4,41.3,32.3,23.1,78,42,12,30.05,29.94,2,0,12,0.00
2013-9-28,85.2,62.6,40.3,36.8,28.3,24.5,61,33,12,30.09,30.01,1,0,6,0.00
2013-9-29,87.7,62.9,40.4,41.5,33.2,26.3,63,37,14,30.11,30.00,2,0,8,0.00
2013-9-30,88.9,64.7,42.7,52.5,40.4,31.4,70,46,17,30.03,29.87,2,0,7,0.00
2013-10-1,81.4,67.9,48.2,60.0,52.5,44.8,90,60,38,29.97,29.89,2,0,8,0.00
2013-10-2,76.1,61.2,49.5,59.3,53.5,45.7,91,77,53,30.01,29.91,1,0,8,0.00
2013-10-3,72.4,61.6,51.5,58.8,54.9,48.7,92,79,61,29.98,29.84,2,0,7,0.00
2013-10-4,82.0,65.2,45.0,49.1,29.7,10.6,96,44,7,30.10,29.92,3,1,13,0.00
2013-10-5,85.1,74.3,53.7,25.2,20.0,13.4,27,13,8,30.17,30.08,4,1,14,0.01
2013-10-6,90.1,64.0,40.5,31.6,21.2,9.2,46,24,5,30.16,30.01,2,0,7,0.00
2013-10-7,84.8,62.4,44.7,46.8,30.3,21.3,61,34,10,30.02,29.93,2,0,8,0.00
2013-10-8,73.8,57.3,40.4,55.9,46.3,32.9,83,68,42,29.97,29.84,2,0,7,0.00
2013-10-9,60.4,55.5,42.5,53.2,47.2,38.9,87,74,57,29.86,29.74,2,0,10,0.01
2013-10-10,65.5,50.6,36.3,50.5,43.3,34.2,96,78,57,30.08,29.84,2,0,6,0.00
2013-10-11,74.2,54.4,38.2,54.3,45.2,35.9,96,74,34,30.10,30.00,2,0,9,0.00
2013-10-12,76.3,56.0,38.8,55.0,45.2,36.4,96,72,29,30.03,29.92,2,0,7,0.00
2013-10-13,68.1,52.9,40.7,54.6,47.1,37.7,95,82,60,30.08,29.98,2,0,8,0.00
2013-10-14,81.7,58.5,39.3,52.9,39.9,30.2,96,61,16,30.09,29.96,2,0,10,0.00
2013-10-15,83.2,59.8,39.9,40.1,31.4,26.8,71,41,13,30.04,29.92,2,0,10,0.00
2013-10-16,82.3,60.0,40.0,34.4,26.2,21.7,59,33,11,30.14,30.03,2,0,9,0.00
2013-10-17,81.7,58.4,38.0,35.8,28.8,24.7,64,37,15,30.09,29.97,2,0,9,0.00
2013-10-18,86.5,59.9,39.1,58.4,36.0,28.4,68,45,13,30.06,29.97,2,0,7,0.00
2013-10-19,87.6,60.0,38.1,41.8,31.8,23.3,66,41,10,30.08,30.00,2,0,8,0.00
2013-10-20,81.2,57.3,38.0,57.9,41.6,27.3,90,59,25,30.03,29.92,2,0,8,0.00
2013-10-21,80.5,57.3,38.6,58.4,47.1,35.7,96,73,22,30.03,29.94,2,0,9,0.00
2013-10-22,79.7,57.7,39.6,56.5,46.4,35.8,88,70,32,30.04,29.93,2,0,8,0.00
2013-10-23,70.5,56.4,45.0,56.4,51.2,42.2,96,84,61,30.02,29.92,2,0,8,0.00
2013-10-24,71.3,60.4,53.4,55.6,53.1,49.9,92,78,55,30.09,29.98,2,0,8,0.00
2013-10-25,76.6,59.1,48.6,57.3,52.6,44.9,96,81,46,30.17,30.05,1,0,7,0.00
2013-10-26,82.9,58.7,40.6,56.9,46.7,37.6,96,69,28,30.15,30.02,2,0,8,0.00
2013-10-27,76.6,55.7,37.8,55.5,44.1,30.4,85,67,33,30.03,29.85,2,0,10,0.00
2013-10-28,62.5,55.0,45.6,51.9,46.3,41.0,90,74,49,29.98,29.84,3,0,10,0.01
2013-10-29,61.8,50.4,40.5,51.0,45.3,38.8,96,84,59,30.07,29.97,2,0,8,0.02
2013-10-30,70.4,51.3,35.3,50.2,41.1,33.5,96,72,29,30.13,30.03,2,0,8,0.00
2013-10-31,77.5,53.3,33.9,43.3,36.8,31.6,95,61,21,30.16,30.05,1,0,8,0.00
2013-11-1,83.0,56.7,34.7,36.1,31.1,27.0,75,45,14,30.18,30.01,1,0,6,0.00
2013-11-2,80.8,56.1,37.3,47.9,34.3,27.7,75,50,18,30.06,29.91,1,0,7,0.00
2013-11-3,68.8,53.8,40.7,55.2,47.1,35.5,94,79,58,29.97,29.86,1,0,7,0.00
2013-11-4,66.3,55.9,41.7,54.8,49.7,38.7,95,81,61,30.00,29.84,1,0,6,0.01
2013-11-5,71.1,58.1,39.6,38.8,21.8,11.4,91,30,10,30.22,30.00,4,1,14,0.00
2013-11-6,79.4,55.8,34.4,27.5,16.6,9.5,50,26,7,30.27,30.17,1,0,7,0.00
2013-11-7,83.1,56.4,37.1,33.6,22.5,16.0,55,31,10,30.20,30.06,2,0,6,0.00
2013-11-8,80.2,54.8,35.3,46.0,31.4,20.8,77,46,17,30.08,29.97,2,0,6,0.00
2013-11-9,76.2,52.6,33.6,49.3,33.2,13.6,89,57,10,30.14,30.03,2,0,7,0.00
2013-11-10,80.0,52.7,36.8,52.3,36.6,18.3,76,60,10,30.18,30.08,2,0,8,0.00
2013-11-11,80.0,53.6,33.7,47.2,34.2,28.1,83,54,16,30.19,30.08,2,0,7,0.00
2013-11-12,84.5,58.4,42.0,49.7,37.4,29.9,68,49,14,30.22,30.12,1,0,4,0.00
2013-11-13,88.9,67.8,42.4,34.1,27.1,21.0,60,28,9,30.14,29.96,2,0,8,0.00
2013-11-14,87.6,64.8,45.4,39.2,30.7,25.2,54,32,11,30.00,29.80,2,0,7,0.00
2013-11-15,66.7,54.2,41.5,54.1,44.2,31.5,87,69,52,29.80,29.71,2,0,10,0.00
2013-11-16,62.8,57.4,50.0,53.2,48.7,44.4,92,73,60,29.99,29.87,2,0,7,0.00
2013-11-17,64.8,52.0,40.5,53.3,46.1,38.0,95,81,61,30.15,29.99,2,0,5,0.00
2013-11-18,65.2,50.5,36.8,53.3,45.6,35.0,96,84,64,30.21,30.10,1,0,5,0.00
2013-11-19,64.7,54.2,46.0,52.7,48.8,43.9,95,83,62,30.15,29.99,1,0,6,0.00
2013-11-20,62.8,55.1,45.4,55.1,51.0,43.3,95,87,70,30.02,29.91,2,0,7,0.09
2013-11-21,61.6,56.6,53.2,56.7,52.9,43.8,96,88,67,29.93,29.85,3,0,8,0.16
2013-11-22,58.6,53.4,50.0,44.3,39.5,37.6,72,59,48,30.03,29.91,4,1,14,0.00
2013-11-23,61.4,50.4,39.3,40.9,38.4,35.8,88,65,43,30.17,30.02,3,0,10,0.00
2013-11-24,65.3,49.8,37.8,43.7,39.3,34.9,94,71,35,30.26,30.16,2,0,11,0.00
2013-11-25,72.7,50.8,35.3,41.9,36.5,32.8,93,63,27,30.30,30.19,2,0,9,0.00
2013-11-26,74.1,52.2,34.8,41.9,36.5,31.6,90,61,23,30.26,30.10,1,0,6,0.00
2013-11-27,70.7,51.9,40.1,42.2,36.9,32.8,84,61,27,30.11,29.92,2,0,8,0.00
2013-11-28,65.8,52.2,39.2,49.1,41.5,33.8,87,69,38,30.11,29.95,4,0,12,0.00
2013-11-29,62.7,54.0,43.7,54.3,47.6,41.0,96,80,62,30.24,30.10,3,0,12,0.06
2013-11-30,73.4,53.4,37.6,46.7,39.4,35.6,96,65,28,30.25,30.13,1,0,7,0.00
2013-12-1,76.6,52.8,36.2,39.9,31.5,23.2,88,53,14,30.30,30.17,2,0,11,0.00
2013-12-2,75.2,50.3,34.4,37.5,30.8,27.4,77,52,19,30.20,29.97,1,0,6,0.00
2013-12-3,64.1,50.7,32.3,51.7,41.7,27.7,86,72,55,29.97,29.78,2,0,9,0.00
2013-12-4,58.4,43.5,27.5,39.7,25.4,13.7,89,55,17,30.03,29.81,2,0,10,0.00
2013-12-5,54.8,37.1,25.3,38.8,27.7,21.1,92,71,39,30.18,30.02,2,0,7,0.00
2013-12-6,54.2,36.2,23.0,38.9,29.9,20.2,94,79,54,30.25,30.16,1,0,5,0.00
2013-12-7,52.6,38.9,24.9,48.7,34.3,22.6,96,85,55,30.19,30.03,3,0,15,0.19
2013-12-8,53.3,42.1,27.5,34.4,30.8,24.5,94,67,42,30.30,30.16,1,0,5,0.00
2013-12-9,55.1,38.2,22.7,24.1,10.7,-2.2,89,43,10,30.40,30.29,4,1,13,0.00
2013-12-10,60.7,40.4,24.8,17.3,11.3,4.7,66,35,11,30.37,30.18,1,0,8,0.00
2013-12-11,67.1,43.5,20.4,20.6,16.2,11.5,79,41,12,30.27,30.19,2,0,7,0.00
2013-12-12,67.6,43.0,27.6,46.0,25.8,18.3,75,55,16,30.29,30.18,2,0,6,0.00
2013-12-13,63.5,41.8,25.8,47.4,33.3,21.8,92,74,30,30.30,30.18,2,0,7,0.00
2013-12-14,71.5,54.7,33.2,31.2,22.9,16.8,90,35,13,30.36,30.27,4,1,18,0.00
2013-12-15,76.3,52.6,35.7,26.9,23.5,19.5,60,37,12,30.33,30.17,2,0,8,0.00
2013-12-16,81.7,55.0,37.0,31.0,26.6,22.5,65,39,12,30.22,30.11,1,0,6,0.00
2013-12-17,82.8,59.5,39.8,34.1,29.4,25.7,63,37,13,30.19,30.05,1,0,4,0.00
2013-12-18,72.0,57.6,45.7,51.6,42.2,33.2,90,59,31,30.05,29.88,2,0,5,0.00
2013-12-19,55.0,49.2,38.0,48.4,43.2,35.3,92,80,60,29.88,29.73,1,0,7,0.01
2013-12-20,62.6,46.1,34.4,37.2,31.9,21.7,91,63,22,30.01,29.85,2,0,9,0.00
2013-12-21,59.4,42.7,29.2,48.0,37.2,26.5,95,82,62,30.16,29.98,2,0,7,0.00
2013-12-22,67.8,45.2,30.8,51.2,38.8,29.1,97,81,36,30.34,30.16,2,0,8,0.00
2013-12-23,73.0,48.8,31.3,39.4,33.2,29.4,95,62,24,30.40,30.28,3,0,10,0.00
2013-12-24,78.2,52.3,32.9,38.5,30.7,26.6,84,51,15,30.28,30.15,3,0,8,0.00
2013-12-25,75.3,53.6,37.8,30.1,21.8,12.0,66,36,9,30.28,30.20,3,0,12,0.00
2013-12-26,76.2,49.4,31.3,21.7,12.0,-0.1,53,29,5,30.25,30.15,3,0,12,0.00
2013-12-27,80.5,50.0,27.3,18.6,12.2,2.0,51,28,5,30.25,30.10,1,0,6,0.00
2013-12-28,74.7,51.4,35.5,42.7,25.7,16.4,77,41,13,30.11,29.95,2,0,10,0.00
2013-12-29,72.1,56.8,32.6,29.0,13.8,3.9,77,25,7,30.21,30.07,7,1,19,0.00
2013-12-30,73.2,46.2,27.8,21.3,13.0,7.1,46,30,8,30.32,30.20,1,0,4,0.00
2013-12-31,70.5,46.6,28.1,38.6,24.6,15.5,68,46,15,30.27,30.14,2,0,7,0.00
2014-1-1,78.7,49.5,29.1,27.6,23.4,19.0,72,44,12,30.20,30.09,1,0,6,0.00
2014-1-2,78.8,51.5,33.0,36.2,26.4,21.4,64,43,14,30.18,30.04,1,0,5,0.00